createdAt,value
2023-03-17T00:00:18.068Z,61.60
2023-03-17T00:01:17.629Z,61.50
2023-03-17T00:02:17.346Z,61.50
2023-03-17T00:03:17.568Z,61.50
2023-03-17T00:04:17.656Z,61.60
2023-03-17T00:05:17.694Z,61.60
2023-03-17T00:06:17.679Z,61.60
2023-03-17T00:07:17.773Z,61.50
2023-03-17T00:08:18.160Z,61.50
2023-03-17T00:09:17.927Z,61.50
2023-03-17T00:10:18.450Z,61.40
2023-03-17T00:11:18.072Z,61.40
2023-03-17T00:12:18.174Z,61.19
2023-03-17T00:13:18.601Z,61.08
2023-03-17T00:14:19.174Z,61.08
2023-03-17T00:15:18.583Z,61.08
2023-03-17T00:16:18.683Z,61.19
2023-03-17T00:21:26.133Z,61.19
2023-03-17T00:21:31.158Z,61.40
2023-03-17T00:22:42.431Z,61.29
2023-03-17T00:23:33.828Z,61.29
2023-03-17T00:24:31.605Z,61.29
2023-03-17T00:25:31.672Z,61.29
2023-03-17T00:26:32.135Z,61.29
2023-03-17T00:27:31.684Z,61.29
2023-03-17T00:28:33.514Z,61.19
2023-03-17T00:29:39.432Z,60.98
2023-03-17T00:30:32.596Z,60.88
2023-03-17T00:31:32.012Z,60.88
2023-03-17T00:32:32.229Z,60.88
2023-03-17T00:33:32.379Z,60.77
2023-03-17T00:34:33.101Z,60.88
2023-03-17T00:35:35.606Z,60.88
2023-03-17T00:36:33.150Z,60.88
2023-03-17T00:37:32.704Z,60.98
2023-03-17T00:38:33.262Z,61.08
2023-03-17T00:39:33.266Z,60.98
2023-03-17T00:40:33.199Z,60.88
2023-03-17T00:41:33.306Z,60.77
2023-03-17T00:42:33.063Z,60.77
2023-03-17T00:43:32.035Z,60.77
2023-03-17T00:44:33.088Z,60.77
2023-03-17T00:45:43.451Z,60.80
2023-03-17T00:46:33.228Z,60.91
2023-03-17T00:47:33.459Z,61.01
2023-03-17T00:48:33.399Z,61.11
2023-03-17T00:49:44.807Z,61.11
2023-03-17T00:50:33.599Z,61.22
2023-03-17T00:51:45.102Z,61.22
2023-03-17T00:52:33.791Z,61.32
2023-03-17T00:53:33.847Z,61.42
2023-03-17T00:54:46.810Z,61.42
2023-03-17T00:55:34.179Z,61.52
2023-03-17T00:56:34.217Z,61.63
2023-03-17T00:57:50.665Z,61.73
2023-03-17T00:58:34.463Z,61.73
2023-03-17T00:59:34.518Z,61.73
2023-03-17T01:00:34.527Z,61.73
2023-03-17T01:01:34.804Z,61.73
2023-03-17T01:02:34.716Z,61.63
2023-03-17T01:03:34.719Z,61.52
2023-03-17T01:04:34.812Z,61.52
2023-03-17T01:05:34.886Z,61.52
2023-03-17T01:06:50.877Z,61.42
2023-03-17T01:09:03.392Z,61.52
2023-03-17T01:10:04.413Z,61.55
2023-03-17T01:11:17.159Z,61.76
2023-03-17T01:12:04.649Z,61.76
2023-03-17T01:15:53.037Z,61.97
2023-03-17T01:18:41.457Z,62.20
2023-03-17T01:19:42.435Z,62.20
2023-03-17T01:20:42.406Z,62.30
2023-03-17T01:24:11.458Z,62.41
2023-03-17T01:25:12.492Z,62.51
2023-03-17T01:26:12.902Z,62.62
2023-03-17T01:27:12.732Z,62.62
2023-03-17T01:28:12.778Z,62.62
2023-03-17T01:29:12.837Z,62.62
2023-03-17T01:30:12.867Z,62.62
2023-03-17T01:31:12.999Z,62.51
2023-03-17T01:33:51.843Z,62.51
2023-03-17T01:34:52.946Z,62.51
2023-03-17T01:35:53.088Z,62.62
2023-03-17T01:36:53.044Z,62.51
2023-03-17T01:37:53.254Z,62.51
2023-03-17T01:38:53.201Z,62.51
2023-03-17T01:39:53.352Z,62.30
2023-03-17T01:40:53.354Z,62.30
2023-03-17T01:41:53.445Z,62.30
2023-03-17T01:42:53.810Z,62.27
2023-03-17T01:43:53.681Z,62.17
2023-03-17T01:44:53.696Z,62.07
2023-03-17T01:45:53.858Z,62.07
2023-03-17T01:46:53.885Z,62.07
2023-03-17T01:47:54.084Z,62.17
2023-03-17T01:48:54.091Z,62.17
2023-03-17T01:49:54.130Z,62.17
2023-03-17T01:50:54.396Z,61.97
2023-03-17T01:51:54.379Z,61.76
2023-03-17T01:52:54.577Z,61.76
2023-03-17T01:53:54.591Z,61.69
2023-03-17T01:54:54.529Z,61.69
2023-03-17T01:55:54.651Z,61.79
2023-03-17T01:56:54.640Z,61.89
2023-03-17T01:57:54.848Z,61.89
2023-03-17T01:58:54.806Z,61.99
2023-03-17T01:59:54.862Z,61.99
2023-03-17T02:00:54.955Z,61.99
2023-03-17T02:01:55.084Z,61.99
2023-03-17T02:02:55.208Z,61.89
2023-03-17T02:03:55.326Z,61.99
2023-03-17T02:04:55.497Z,61.99
2023-03-17T02:05:55.476Z,61.99
2023-03-17T02:06:58.382Z,62.10
2023-03-17T02:07:55.528Z,62.10
2023-03-17T02:08:55.617Z,62.10
2023-03-17T02:09:55.712Z,62.10
2023-03-17T02:10:55.805Z,62.10
2023-03-17T02:11:55.873Z,62.10
2023-03-17T02:12:55.982Z,62.20
2023-03-17T02:13:56.007Z,62.20
2023-03-17T02:14:56.089Z,62.20
2023-03-17T02:15:56.215Z,62.20
2023-03-17T02:25:28.880Z,63.09
2023-03-17T02:26:29.958Z,63.09
2023-03-17T02:27:29.985Z,63.19
2023-03-17T02:28:30.121Z,63.19
2023-03-17T02:29:30.180Z,63.19
2023-03-17T02:30:30.648Z,63.16
2023-03-17T02:31:30.351Z,63.16
2023-03-17T02:32:30.487Z,63.06
2023-03-17T02:33:30.519Z,63.06
2023-03-17T02:34:30.600Z,63.06
2023-03-17T02:35:30.720Z,62.95
2023-03-17T02:36:30.821Z,62.95
2023-03-17T02:37:30.806Z,62.85
2023-03-17T02:38:30.932Z,62.75
2023-03-17T02:39:30.973Z,62.65
2023-03-17T03:07:58.751Z,64.00
2023-03-17T03:08:59.710Z,64.00
2023-03-17T03:10:00.048Z,64.11
2023-03-17T03:10:59.835Z,64.11
2023-03-17T03:11:59.894Z,64.11
2023-03-17T03:12:59.969Z,64.11
2023-03-17T03:14:00.045Z,64.07
2023-03-17T03:15:00.157Z,64.07
2023-03-17T03:16:00.386Z,63.97
2023-03-17T03:17:00.318Z,63.97
2023-03-17T03:18:00.392Z,64.07
2023-03-17T03:19:00.473Z,64.07
2023-03-17T03:29:11.711Z,64.73
2023-03-17T03:30:12.788Z,64.83
2023-03-17T03:31:12.888Z,64.94
2023-03-17T03:32:12.929Z,64.90
2023-03-17T03:33:13.018Z,64.90
2023-03-17T03:34:13.078Z,64.90
2023-03-17T03:35:13.168Z,64.80
2023-03-17T03:36:13.242Z,64.59
2023-03-17T03:37:13.310Z,64.56
2023-03-17T03:38:13.387Z,64.56
2023-03-17T03:39:14.525Z,64.46
2023-03-17T03:40:13.561Z,64.46
2023-03-17T03:41:13.661Z,64.46
2023-03-17T03:42:13.718Z,64.46
2023-03-17T03:43:22.777Z,64.46
2023-03-17T03:44:13.917Z,64.46
2023-03-17T03:45:13.989Z,64.56
2023-03-17T03:46:14.107Z,64.46
2023-03-17T03:47:14.166Z,64.46
2023-03-17T03:48:14.239Z,64.46
2023-03-17T03:49:14.314Z,64.32
2023-03-17T03:50:14.370Z,64.32
2023-03-17T03:51:14.485Z,64.23
2023-03-17T03:52:14.565Z,64.23
2023-03-17T03:53:14.638Z,64.12
2023-03-17T03:54:14.688Z,64.12
2023-03-17T03:55:14.802Z,64.02
2023-03-17T03:56:14.886Z,64.02
2023-03-17T03:57:15.006Z,63.92
2023-03-17T03:58:15.082Z,63.92
2023-03-17T03:59:15.149Z,63.92
2023-03-17T04:00:15.204Z,63.92
2023-03-17T04:01:15.255Z,63.92
2023-03-17T04:02:15.386Z,64.02
2023-03-17T04:03:15.433Z,64.02
2023-03-17T04:04:15.501Z,64.12
2023-03-17T04:05:15.627Z,64.12
2023-03-17T04:06:15.659Z,64.12
2023-03-17T04:07:15.798Z,64.12
2023-03-17T04:08:15.862Z,64.12
2023-03-17T04:09:15.917Z,64.12
2023-03-17T04:10:15.984Z,64.12
2023-03-17T04:11:16.045Z,64.02
2023-03-17T04:12:16.146Z,63.92
2023-03-17T04:13:16.223Z,63.92
2023-03-17T04:14:16.287Z,63.92
2023-03-17T04:15:16.418Z,64.02
2023-03-17T04:16:16.514Z,64.02
2023-03-17T04:17:16.610Z,64.02
2023-03-17T04:18:16.676Z,64.02
2023-03-17T04:19:16.809Z,64.02
2023-03-17T04:20:16.834Z,64.02
2023-03-17T04:21:16.941Z,64.02
2023-03-17T04:22:17.025Z,64.02
2023-03-17T04:23:17.084Z,64.02
2023-03-17T04:24:17.145Z,64.02
2023-03-17T04:25:17.251Z,64.02
2023-03-17T04:26:17.309Z,63.92
2023-03-17T04:27:17.425Z,63.92
2023-03-17T04:28:17.442Z,63.92
2023-03-17T04:29:17.541Z,63.81
2023-03-17T04:30:17.608Z,63.71
2023-03-17T04:31:17.699Z,63.60
2023-03-17T04:32:17.768Z,63.60
2023-03-17T04:33:17.821Z,63.60
2023-03-17T04:34:17.878Z,63.71
2023-03-17T04:35:17.994Z,63.81
2023-03-17T04:36:18.068Z,63.81
2023-03-17T04:37:18.187Z,63.81
2023-03-17T04:38:18.244Z,63.92
2023-03-17T04:39:18.317Z,63.92
2023-03-17T04:40:18.381Z,63.92
2023-03-17T04:41:18.470Z,63.92
2023-03-17T04:42:18.603Z,64.02
2023-03-17T04:43:18.675Z,64.12
2023-03-17T04:44:18.763Z,64.12
2023-03-17T04:45:18.863Z,64.12
2023-03-17T04:46:18.975Z,64.12
2023-03-17T04:47:19.080Z,64.12
2023-03-17T04:48:19.094Z,64.12
2023-03-17T04:49:19.207Z,64.12
2023-03-17T04:50:19.266Z,64.12
2023-03-17T04:51:19.371Z,64.12
2023-03-17T04:52:19.474Z,64.02
2023-03-17T04:53:19.543Z,64.12
2023-03-17T04:54:19.608Z,64.12
2023-03-17T04:55:19.681Z,63.92
2023-03-17T04:56:19.730Z,63.81
2023-03-17T04:57:19.844Z,63.81
2023-03-17T04:58:30.322Z,63.84
2023-03-17T04:59:19.992Z,63.74
2023-03-17T05:00:20.055Z,63.74
2023-03-17T05:01:20.174Z,63.74
2023-03-17T05:02:20.312Z,63.84
2023-03-17T05:03:27.226Z,63.84
2023-03-17T05:04:31.132Z,63.84
2023-03-17T05:05:20.515Z,63.95
2023-03-17T05:07:47.653Z,63.95
2023-03-17T05:08:48.757Z,63.84
2023-03-17T05:09:48.720Z,64.04
2023-03-17T05:10:48.821Z,63.97
2023-03-17T05:11:48.886Z,63.84
2023-03-17T05:12:48.969Z,63.66
2023-03-17T05:13:49.056Z,63.66
2023-03-17T05:14:49.119Z,63.66
2023-03-17T05:15:49.175Z,63.66
2023-03-17T05:16:49.461Z,63.76
2023-03-17T05:17:49.339Z,63.87
2023-03-17T05:18:49.421Z,63.87
2023-03-17T05:19:49.478Z,63.87
2023-03-17T05:22:34.563Z,64.07
2023-03-17T05:23:34.112Z,64.18
2023-03-17T05:24:34.066Z,64.39
2023-03-17T05:25:34.146Z,64.49
2023-03-17T05:26:34.194Z,64.49
2023-03-17T05:27:34.301Z,64.49
2023-03-17T05:28:34.404Z,64.39
2023-03-17T05:29:34.494Z,64.49
2023-03-17T05:30:34.973Z,64.49
2023-03-17T05:31:34.672Z,64.49
2023-03-17T05:32:34.801Z,64.59
2023-03-17T05:33:34.835Z,64.59
2023-03-17T05:34:34.868Z,64.59
2023-03-17T05:35:35.019Z,64.67
2023-03-17T05:36:35.097Z,64.70
2023-03-17T05:37:35.172Z,64.56
2023-03-17T05:38:35.272Z,64.49
2023-03-17T05:39:35.344Z,64.56
2023-03-17T05:40:35.384Z,64.56
2023-03-17T05:41:35.497Z,64.56
2023-03-17T05:42:35.603Z,64.56
2023-03-17T05:43:35.696Z,64.56
2023-03-17T05:44:35.726Z,64.56
2023-03-17T05:45:35.791Z,64.56
2023-03-17T05:46:35.957Z,64.56
2023-03-17T05:47:35.919Z,64.56
2023-03-17T05:48:36.048Z,64.56
2023-03-17T05:49:36.114Z,64.46
2023-03-17T05:50:36.219Z,64.46
2023-03-17T05:51:37.030Z,64.46
2023-03-17T05:52:36.380Z,64.46
2023-03-17T05:53:36.519Z,64.56
2023-03-17T05:54:36.546Z,64.56
2023-03-17T05:55:36.622Z,64.56
2023-03-17T05:56:36.728Z,64.56
2023-03-17T05:57:36.806Z,64.56
2023-03-17T05:58:36.918Z,64.67
2023-03-17T05:59:36.987Z,64.67
2023-03-17T06:00:37.024Z,64.67
2023-03-17T06:01:37.088Z,64.67
2023-03-17T06:02:37.195Z,64.67
2023-03-17T06:03:37.280Z,64.67
2023-03-17T06:04:37.360Z,64.77
2023-03-17T06:05:37.797Z,64.77
2023-03-17T06:06:37.542Z,64.67
2023-03-17T06:07:50.833Z,64.67
2023-03-17T06:08:37.733Z,64.56
2023-03-17T06:16:26.219Z,64.62
2023-03-17T06:17:27.208Z,64.73
2023-03-17T06:18:27.303Z,64.83
2023-03-17T06:19:27.395Z,64.94
2023-03-17T06:20:27.463Z,64.94
2023-03-17T06:21:27.525Z,64.94
2023-03-17T06:22:27.643Z,65.04
2023-03-17T06:23:27.698Z,64.94
2023-03-17T06:24:27.794Z,64.94
2023-03-17T06:25:27.920Z,65.04
2023-03-17T06:26:27.945Z,65.04
2023-03-17T06:27:28.021Z,65.14
2023-03-17T06:28:28.102Z,65.11
2023-03-17T06:29:28.711Z,65.11
2023-03-17T06:32:51.092Z,65.25
2023-03-17T06:33:52.076Z,65.35
2023-03-17T06:34:52.158Z,65.56
2023-03-17T06:35:52.287Z,65.66
2023-03-17T06:36:52.345Z,65.66
2023-03-17T06:37:52.426Z,65.66
2023-03-17T06:38:52.505Z,65.77
2023-03-17T06:39:52.548Z,65.73
2023-03-17T06:40:52.677Z,65.63
2023-03-17T06:41:52.734Z,65.63
2023-03-17T06:42:52.844Z,65.63
2023-03-17T06:43:52.967Z,65.63
2023-03-17T06:44:52.992Z,65.63
2023-03-17T06:45:53.089Z,65.53
2023-03-17T06:46:53.237Z,65.42
2023-03-17T06:47:53.248Z,65.42
2023-03-17T06:48:53.323Z,65.32
2023-03-17T06:49:53.392Z,65.32
2023-03-17T06:50:53.548Z,65.22
2023-03-17T06:51:53.550Z,65.22
2023-03-17T06:52:53.675Z,65.32
2023-03-17T06:53:53.738Z,65.42
2023-03-17T06:54:53.795Z,65.53
2023-03-17T06:55:53.868Z,65.66
2023-03-17T06:56:53.963Z,65.66
2023-03-17T06:57:54.003Z,65.77
2023-03-17T06:58:54.115Z,65.87
2023-03-17T06:59:54.185Z,65.97
2023-03-17T07:00:54.356Z,66.08
2023-03-17T07:01:54.485Z,66.18
2023-03-17T07:02:54.448Z,66.15
2023-03-17T07:03:54.554Z,66.25
2023-03-17T07:04:54.675Z,66.35
2023-03-17T07:05:54.737Z,66.56
2023-03-17T07:06:54.776Z,66.66
2023-03-17T07:07:54.847Z,66.66
2023-03-17T07:08:54.914Z,66.77
2023-03-17T07:09:54.982Z,66.87
2023-03-17T07:10:55.077Z,66.87
2023-03-17T07:11:55.153Z,66.97
2023-03-17T07:12:55.232Z,66.97
2023-03-17T07:13:55.343Z,66.97
2023-03-17T07:14:55.397Z,67.08
2023-03-17T07:15:55.844Z,67.05
2023-03-17T07:16:55.601Z,67.05
2023-03-17T07:17:55.699Z,67.15
2023-03-17T07:18:55.764Z,67.15
2023-03-17T07:19:55.840Z,67.15
2023-03-17T07:20:55.941Z,67.15
2023-03-17T07:21:56.014Z,67.25
2023-03-17T07:22:56.109Z,67.25
2023-03-17T07:23:56.166Z,67.25
2023-03-17T07:24:56.331Z,67.25
2023-03-17T07:25:56.352Z,67.25
2023-03-17T07:26:56.440Z,67.25
2023-03-17T07:27:56.532Z,67.22
2023-03-17T07:28:56.592Z,67.22
2023-03-17T07:29:56.721Z,67.22
2023-03-17T07:30:56.800Z,67.22
2023-03-17T07:31:56.821Z,67.33
2023-03-17T07:32:57.048Z,67.33
2023-03-17T07:33:57.397Z,67.33
2023-03-17T07:34:57.100Z,67.43
2023-03-17T07:35:57.271Z,67.54
2023-03-17T07:36:57.263Z,67.54
2023-03-17T07:37:57.390Z,67.61
2023-03-17T07:38:57.459Z,67.71
2023-03-17T07:39:57.531Z,67.71
2023-03-17T07:40:57.678Z,67.82
2023-03-17T07:41:57.720Z,67.82
2023-03-17T07:42:57.788Z,67.82
2023-03-17T07:43:57.856Z,67.71
2023-03-17T07:44:57.925Z,67.71
2023-03-17T07:45:58.071Z,67.82
2023-03-17T07:46:58.121Z,67.71
2023-03-17T07:47:58.145Z,67.61
2023-03-17T07:48:58.244Z,67.50
2023-03-17T07:55:22.419Z,67.91
2023-03-17T07:56:23.569Z,68.02
2023-03-17T07:57:23.716Z,68.12
2023-03-17T07:58:23.636Z,68.12
2023-03-17T07:59:23.738Z,68.12
2023-03-17T08:00:23.738Z,68.02
2023-03-17T08:01:23.904Z,67.88
2023-03-17T08:02:24.126Z,67.88
2023-03-17T08:03:24.055Z,67.78
2023-03-17T08:04:24.075Z,67.68
2023-03-17T08:05:24.217Z,67.65
2023-03-17T08:06:24.241Z,67.65
2023-03-17T08:07:24.373Z,67.54
2023-03-17T08:08:24.438Z,67.44
2023-03-17T08:09:32.227Z,67.34
2023-03-17T08:10:24.712Z,67.21
2023-03-17T08:11:24.704Z,67.21
2023-03-17T08:12:24.761Z,67.21
2023-03-17T08:13:24.840Z,67.21
2023-03-17T08:14:24.929Z,67.00
2023-03-17T08:15:24.957Z,66.89
2023-03-17T08:16:25.160Z,67.00
2023-03-17T08:17:25.114Z,67.21
2023-03-17T08:18:25.243Z,66.97
2023-03-17T08:19:25.350Z,66.76
2023-03-17T08:20:25.406Z,66.55
2023-03-17T08:21:25.481Z,66.42
2023-03-17T08:22:25.582Z,66.21
2023-03-17T08:23:25.656Z,66.11
2023-03-17T08:24:25.691Z,66.11
2023-03-17T08:25:25.853Z,66.01
2023-03-17T08:26:25.905Z,65.88
2023-03-17T08:27:25.954Z,65.88
2023-03-17T08:28:26.079Z,65.88
2023-03-17T08:29:26.142Z,65.77
2023-03-17T08:30:26.294Z,65.56
2023-03-17T08:31:26.499Z,65.56
2023-03-17T08:32:26.519Z,65.33
2023-03-17T08:33:26.505Z,65.33
2023-03-17T08:34:26.561Z,65.22
2023-03-17T08:35:26.664Z,65.22
2023-03-17T08:36:26.763Z,65.12
2023-03-17T08:37:26.846Z,65.09
2023-03-17T08:38:26.893Z,65.09
2023-03-17T08:39:26.984Z,65.09
2023-03-17T08:40:27.016Z,64.99
2023-03-17T08:41:27.105Z,64.78
2023-03-17T08:42:27.153Z,64.37
2023-03-17T08:43:27.230Z,64.14
2023-03-17T08:44:27.292Z,64.03
2023-03-17T08:45:27.369Z,64.03
2023-03-17T08:46:27.592Z,63.82
2023-03-17T08:47:27.514Z,63.62
2023-03-17T08:48:27.568Z,63.52
2023-03-17T08:49:27.632Z,63.52
2023-03-17T08:50:27.880Z,63.42
2023-03-17T08:51:27.904Z,63.52
2023-03-17T08:52:27.930Z,63.49
2023-03-17T08:53:27.973Z,63.49
2023-03-17T08:54:28.067Z,63.28
2023-03-17T08:55:28.118Z,63.39
2023-03-17T08:56:28.251Z,63.39
2023-03-17T08:57:28.337Z,63.28
2023-03-17T08:58:28.389Z,63.18
2023-03-17T08:59:28.474Z,63.07
2023-03-17T09:00:28.598Z,63.25
2023-03-17T09:01:28.640Z,63.46
2023-03-17T09:02:28.810Z,63.35
2023-03-17T09:03:28.851Z,63.32
2023-03-17T09:04:28.893Z,63.22
2023-03-17T09:05:29.477Z,62.92
2023-03-17T09:06:29.071Z,62.92
2023-03-17T09:07:29.203Z,62.81
2023-03-17T09:08:29.204Z,62.81
2023-03-17T09:09:29.279Z,62.78
2023-03-17T09:10:29.694Z,62.58
2023-03-17T09:11:29.484Z,62.48
2023-03-17T09:12:29.606Z,61.72
2023-03-17T09:13:29.748Z,60.91
2023-03-17T09:14:37.300Z,61.21
2023-03-17T09:15:30.012Z,61.29
2023-03-17T09:16:29.953Z,61.29
2023-03-17T09:17:29.973Z,60.05
2023-03-17T09:18:30.077Z,60.54
2023-03-17T09:19:30.146Z,60.54
2023-03-17T09:20:30.580Z,60.72
2023-03-17T09:21:30.319Z,60.51
2023-03-17T09:22:30.386Z,60.41
2023-03-17T09:23:30.474Z,60.31
2023-03-17T09:24:30.564Z,60.21
2023-03-17T09:25:30.652Z,60.10
2023-03-17T09:26:30.772Z,60.17
2023-03-17T09:27:30.791Z,60.28
2023-03-17T09:28:30.911Z,60.38
2023-03-17T09:29:31.013Z,60.58
2023-03-17T09:30:31.265Z,60.58
2023-03-17T09:31:31.250Z,60.46
2023-03-17T09:32:31.296Z,60.46
2023-03-17T09:33:31.313Z,60.46
2023-03-17T09:34:31.403Z,60.25
2023-03-17T09:35:31.571Z,60.05
2023-03-17T09:36:31.563Z,59.84
2023-03-17T09:37:31.600Z,59.84
2023-03-17T09:38:31.674Z,59.74
2023-03-17T09:39:31.751Z,59.84
2023-03-17T09:40:32.188Z,60.25
2023-03-17T09:41:31.937Z,60.25
2023-03-17T09:42:31.960Z,60.12
2023-03-17T09:43:32.062Z,60.02
2023-03-17T09:44:32.132Z,59.61
2023-03-17T09:45:32.212Z,59.30
2023-03-17T09:46:32.304Z,59.20
2023-03-17T09:47:32.374Z,59.09
2023-03-17T09:48:32.466Z,59.00
2023-03-17T09:49:32.532Z,59.09
2023-03-17T09:50:32.994Z,59.00
2023-03-17T09:51:32.720Z,58.48
2023-03-17T09:52:32.753Z,58.07
2023-03-17T09:53:32.856Z,58.07
2023-03-17T09:54:32.962Z,57.76
2023-03-17T09:55:33.534Z,57.56
2023-03-17T09:56:33.148Z,57.94
2023-03-17T09:57:33.176Z,58.25
2023-03-17T09:58:33.245Z,58.45
2023-03-17T09:59:33.329Z,58.56
2023-03-17T10:00:33.393Z,58.33
2023-03-17T10:01:33.634Z,58.22
2023-03-17T10:02:33.555Z,57.61
2023-03-17T10:03:33.628Z,57.30
2023-03-17T10:04:33.715Z,57.30
2023-03-17T10:05:34.334Z,57.81
2023-03-17T10:06:33.918Z,57.07
2023-03-17T10:07:33.952Z,56.56
2023-03-17T10:08:34.055Z,57.17
2023-03-17T10:09:34.121Z,57.45
2023-03-17T10:10:34.210Z,57.25
2023-03-17T10:11:34.290Z,57.15
2023-03-17T10:12:34.375Z,57.12
2023-03-17T10:13:34.464Z,57.22
2023-03-17T10:14:34.532Z,57.22
2023-03-17T10:15:34.610Z,56.92
2023-03-17T10:16:34.773Z,55.89
2023-03-17T10:17:34.750Z,55.28
2023-03-17T10:18:34.842Z,54.97
2023-03-17T10:19:34.946Z,54.95
2023-03-17T10:20:35.038Z,54.95
2023-03-17T10:21:35.128Z,53.42
2023-03-17T10:22:35.180Z,53.01
2023-03-17T10:23:35.250Z,51.98
2023-03-17T10:24:35.349Z,51.78
2023-03-17T10:25:35.415Z,51.89
2023-03-17T10:26:35.532Z,51.96
2023-03-17T10:27:35.556Z,52.37
2023-03-17T10:28:35.644Z,52.78
2023-03-17T10:29:35.698Z,53.29
2023-03-17T10:30:35.828Z,53.08
2023-03-17T10:31:35.995Z,53.19
2023-03-17T10:32:36.033Z,53.57
2023-03-17T10:33:36.061Z,53.57
2023-03-17T10:34:38.001Z,53.77
2023-03-17T10:35:36.523Z,52.55
2023-03-17T10:36:36.336Z,52.34
2023-03-17T10:37:36.387Z,51.81
2023-03-17T10:38:36.475Z,51.91
2023-03-17T10:39:36.533Z,51.81
2023-03-17T10:40:36.607Z,51.51
2023-03-17T10:41:36.721Z,51.68
2023-03-17T10:42:36.746Z,51.58
2023-03-17T10:43:36.838Z,51.68
2023-03-17T10:44:36.916Z,51.17
2023-03-17T10:45:39.153Z,50.56
2023-03-17T10:46:37.160Z,49.65
2023-03-17T10:47:37.151Z,49.83
2023-03-17T10:48:37.222Z,50.34
2023-03-17T10:49:37.283Z,50.84
2023-03-17T10:50:37.424Z,49.60
2023-03-17T10:51:37.566Z,48.48
2023-03-17T10:52:37.562Z,47.66
2023-03-17T10:53:37.662Z,48.18
2023-03-17T10:54:37.708Z,49.09
2023-03-17T10:55:37.804Z,49.58
2023-03-17T10:56:37.922Z,49.98
2023-03-17T10:57:37.953Z,50.19
2023-03-17T10:58:38.043Z,48.56
2023-03-17T10:59:38.570Z,47.72
2023-03-17T11:00:38.301Z,48.43
2023-03-17T11:01:38.329Z,48.84
2023-03-17T11:02:38.367Z,48.64
2023-03-17T11:03:38.494Z,48.64
2023-03-17T11:04:38.528Z,48.82
2023-03-17T11:05:40.019Z,49.02
2023-03-17T11:06:38.715Z,49.84
2023-03-17T11:07:38.805Z,49.43
2023-03-17T11:08:38.866Z,49.30
2023-03-17T11:09:38.979Z,49.40
2023-03-17T11:10:39.025Z,49.30
2023-03-17T11:11:39.132Z,50.01
2023-03-17T11:12:39.180Z,50.62
2023-03-17T11:13:39.269Z,50.50
2023-03-17T11:14:39.351Z,49.99
2023-03-17T11:15:39.443Z,49.08
2023-03-17T11:16:39.591Z,49.58
2023-03-17T11:17:39.600Z,49.46
2023-03-17T11:18:39.682Z,49.26
2023-03-17T11:19:39.763Z,50.07
2023-03-17T11:20:39.843Z,50.07
2023-03-17T11:21:39.946Z,49.36
2023-03-17T11:22:40.074Z,49.97
2023-03-17T11:23:40.101Z,50.56
2023-03-17T11:24:40.193Z,50.86
2023-03-17T11:25:40.284Z,50.96
2023-03-17T11:26:40.385Z,50.56
2023-03-17T11:27:40.432Z,50.04
2023-03-17T11:28:40.512Z,50.04
2023-03-17T11:29:40.572Z,49.82
2023-03-17T11:30:40.656Z,50.02
2023-03-17T11:31:40.819Z,50.53
2023-03-17T11:32:40.875Z,49.01
2023-03-17T11:33:41.001Z,48.60
2023-03-17T11:34:40.993Z,48.60
2023-03-17T11:35:41.077Z,48.80
2023-03-17T11:36:41.254Z,47.49
2023-03-17T11:37:41.244Z,48.19
2023-03-17T11:38:41.312Z,47.46
2023-03-17T11:39:41.395Z,47.36
2023-03-17T11:40:41.486Z,46.65
2023-03-17T11:41:41.623Z,46.55
2023-03-17T11:42:41.651Z,47.26
2023-03-17T11:43:41.746Z,47.14
2023-03-17T11:44:41.835Z,46.94
2023-03-17T11:45:41.937Z,47.14
2023-03-17T11:46:42.046Z,47.44
2023-03-17T11:47:42.079Z,47.54
2023-03-17T11:48:42.163Z,47.44
2023-03-17T11:49:42.258Z,47.34
2023-03-17T11:50:42.350Z,47.03
2023-03-17T11:51:42.445Z,46.83
2023-03-17T11:52:42.547Z,46.94
2023-03-17T11:53:42.568Z,46.53
2023-03-17T11:54:42.644Z,46.73
2023-03-17T11:55:42.711Z,45.62
2023-03-17T11:56:42.839Z,44.30
2023-03-17T11:57:42.844Z,43.69
2023-03-17T11:58:42.934Z,44.50
2023-03-17T11:59:43.025Z,45.21
2023-03-17T12:00:43.970Z,45.82
2023-03-17T12:01:43.218Z,45.90
2023-03-17T12:02:43.256Z,46.00
2023-03-17T12:03:43.452Z,46.00
2023-03-17T12:04:43.578Z,46.30
2023-03-17T12:05:43.485Z,46.51
2023-03-17T12:06:43.611Z,45.59
2023-03-17T12:07:43.706Z,45.19
2023-03-17T12:08:43.800Z,44.89
2023-03-17T12:09:43.867Z,45.39
2023-03-17T12:10:43.941Z,45.90
2023-03-17T12:11:44.036Z,45.47
2023-03-17T12:12:44.114Z,45.67
2023-03-17T12:13:44.194Z,46.18
2023-03-17T12:14:44.283Z,46.38
2023-03-17T12:15:44.540Z,46.59
2023-03-17T12:16:44.484Z,46.08
2023-03-17T12:17:44.514Z,46.08
2023-03-17T12:18:44.623Z,46.08
2023-03-17T12:19:44.692Z,46.79
2023-03-17T12:20:44.774Z,46.38
2023-03-17T12:21:44.878Z,47.09
2023-03-17T12:22:44.910Z,46.59
2023-03-17T12:23:44.974Z,46.46
2023-03-17T12:24:45.062Z,46.56
2023-03-17T12:25:45.152Z,47.17
2023-03-17T12:26:45.249Z,47.07
2023-03-17T12:27:45.343Z,46.77
2023-03-17T12:28:45.415Z,45.55
2023-03-17T12:29:45.541Z,45.25
2023-03-17T12:30:45.767Z,45.35
2023-03-17T12:31:45.681Z,45.75
2023-03-17T12:32:45.891Z,45.65
2023-03-17T12:33:45.859Z,45.65
2023-03-17T12:34:45.956Z,45.45
2023-03-17T12:35:46.038Z,45.35
2023-03-17T12:36:46.110Z,45.25
2023-03-17T12:37:46.178Z,45.25
2023-03-17T12:38:46.244Z,45.35
2023-03-17T12:39:46.327Z,45.96
2023-03-17T12:40:46.396Z,46.16
2023-03-17T12:41:46.547Z,46.06
2023-03-17T12:42:46.565Z,44.95
2023-03-17T12:43:46.678Z,44.44
2023-03-17T12:44:46.733Z,44.34
2023-03-17T12:45:46.818Z,44.74
2023-03-17T12:46:47.006Z,44.74
2023-03-17T12:47:46.985Z,44.54
2023-03-17T12:48:47.063Z,44.74
2023-03-17T12:49:47.139Z,45.25
2023-03-17T12:50:47.214Z,45.25
2023-03-17T12:51:47.358Z,44.95
2023-03-17T12:52:47.396Z,44.34
2023-03-17T12:53:47.471Z,45.03
2023-03-17T12:54:47.585Z,45.73
2023-03-17T12:55:47.638Z,45.63
2023-03-17T12:56:47.742Z,45.15
2023-03-17T12:57:47.786Z,45.75
2023-03-17T12:58:47.854Z,45.53
2023-03-17T12:59:47.972Z,45.94
2023-03-17T13:00:48.022Z,45.73
2023-03-17T13:01:48.240Z,46.24
2023-03-17T13:02:48.229Z,45.73
2023-03-17T13:03:48.239Z,46.04
2023-03-17T13:04:48.312Z,46.34
2023-03-17T13:05:48.397Z,46.24
2023-03-17T13:06:48.489Z,46.34
2023-03-17T13:07:48.588Z,46.44
2023-03-17T13:08:48.665Z,46.75
2023-03-17T13:09:48.757Z,46.75
2023-03-17T13:10:48.909Z,46.84
2023-03-17T13:11:48.949Z,46.84
2023-03-17T13:12:48.987Z,47.05
2023-03-17T13:13:49.065Z,47.25
2023-03-17T13:14:49.148Z,47.15
2023-03-17T13:15:49.248Z,46.44
2023-03-17T13:16:49.338Z,46.54
2023-03-17T13:17:49.364Z,46.44
2023-03-17T13:18:49.463Z,46.62
2023-03-17T13:19:49.559Z,46.52
2023-03-17T13:20:49.625Z,46.62
2023-03-17T13:21:49.748Z,47.13
2023-03-17T13:22:49.821Z,47.63
2023-03-17T13:23:49.886Z,47.23
2023-03-17T13:24:49.960Z,47.33
2023-03-17T13:25:50.032Z,47.63
2023-03-17T13:26:50.124Z,47.74
2023-03-17T13:27:50.209Z,47.94
2023-03-17T13:28:50.284Z,48.54
2023-03-17T13:29:50.363Z,48.34
2023-03-17T13:30:50.465Z,48.03
2023-03-17T13:31:50.577Z,48.03
2023-03-17T13:32:50.608Z,47.94
2023-03-17T13:50:38.085Z,48.65
2023-03-17T13:51:41.889Z,49.15
2023-03-17T13:52:39.201Z,49.35
2023-03-17T13:53:39.295Z,49.45
2023-03-17T13:54:39.358Z,49.25
2023-03-17T13:55:39.523Z,49.45
2023-03-17T13:56:39.594Z,49.66
2023-03-17T13:57:39.656Z,49.55
2023-03-17T13:58:39.700Z,49.76
2023-03-17T13:59:39.796Z,49.96
2023-03-17T14:00:39.930Z,50.06
2023-03-17T14:01:39.947Z,49.96
2023-03-17T14:02:40.021Z,49.96
2023-03-17T14:03:40.279Z,49.86
2023-03-17T14:04:40.214Z,49.96
2023-03-17T14:08:19.213Z,51.07
2023-03-17T14:09:20.303Z,51.28
2023-03-17T14:10:20.327Z,51.78
2023-03-17T14:11:20.382Z,51.88
2023-03-17T14:12:20.487Z,51.98
2023-03-17T14:13:20.589Z,51.55
2023-03-17T14:14:32.203Z,51.45
2023-03-17T14:15:20.728Z,51.86
2023-03-17T14:16:20.842Z,51.96
2023-03-17T14:17:20.902Z,51.35
2023-03-17T14:18:20.962Z,51.12
2023-03-17T14:19:21.069Z,51.03
2023-03-17T14:20:21.131Z,51.43
2023-03-17T14:21:21.244Z,51.32
2023-03-17T14:22:21.313Z,50.92
2023-03-17T14:23:21.399Z,50.52
2023-03-17T14:24:21.483Z,50.12
2023-03-17T14:25:21.549Z,50.12
2023-03-17T14:26:21.646Z,50.42
2023-03-17T14:27:21.712Z,50.49
2023-03-17T14:28:21.789Z,50.70
2023-03-17T14:29:21.897Z,50.59